createdAt,value
2023-05-13T00:01:10.603Z,92.87
2023-05-13T00:04:19.485Z,92.36
2023-05-13T00:07:47.822Z,92.76
2023-05-13T00:10:56.336Z,93.32
2023-05-13T00:14:24.338Z,93.79
2023-05-13T00:17:52.187Z,93.52
2023-05-13T00:21:00.163Z,94.06
2023-05-13T00:24:28.229Z,94.12
2023-05-13T00:27:51.515Z,94.03
2023-05-13T00:31:19.489Z,94.29
2023-05-13T00:34:28.602Z,94.08
2023-05-13T00:37:56.436Z,93.17
2023-05-13T00:41:04.753Z,93.19
2023-05-13T00:44:14.537Z,93.88
2023-05-13T00:47:41.461Z,93.45
2023-05-13T00:51:09.440Z,93.22
2023-05-13T00:54:37.488Z,93.48
2023-05-13T00:58:05.529Z,93.35
2023-05-13T01:01:33.437Z,93.83
2023-05-13T01:05:01.478Z,92.99
2023-05-13T01:08:09.925Z,92.62
2023-05-13T01:11:38.165Z,94.31
2023-05-13T01:15:06.466Z,93.83
2023-05-13T01:18:34.653Z,94.87
2023-05-13T01:21:59.083Z,94.80
2023-05-13T01:25:27.575Z,95.23
2023-05-13T01:28:55.682Z,95.18
2023-05-13T01:32:24.053Z,93.96
2023-05-13T01:35:52.407Z,95.35
2023-05-13T01:39:20.139Z,94.99
2023-05-13T01:42:48.375Z,95.19
2023-05-13T01:46:16.503Z,95.16
2023-05-13T01:49:44.632Z,94.95
2023-05-13T01:53:12.853Z,94.05
2023-05-13T01:56:22.786Z,94.51
2023-05-13T01:59:51.094Z,94.64
2023-05-13T02:03:02.512Z,94.90
2023-05-13T02:06:30.342Z,94.72
2023-05-13T02:09:58.361Z,93.88
2023-05-13T02:13:26.511Z,94.23
2023-05-13T02:16:57.977Z,93.48
2023-05-13T02:20:06.540Z,93.51
2023-05-13T02:23:34.565Z,93.19
2023-05-13T02:27:02.432Z,93.12
2023-05-13T02:30:30.216Z,93.48
2023-05-13T02:33:57.980Z,93.68
2023-05-13T02:37:25.916Z,93.51
2023-05-13T02:40:53.826Z,93.10
2023-05-13T02:44:21.954Z,92.70
2023-05-13T02:47:50.109Z,93.16
2023-05-13T02:51:18.594Z,92.92
2023-05-13T02:54:46.985Z,92.59
2023-05-13T02:58:15.084Z,92.47
2023-05-13T03:01:43.324Z,92.52
2023-05-13T03:05:11.555Z,92.84
2023-05-13T03:08:39.511Z,93.43
2023-05-13T03:12:07.514Z,93.07
2023-05-13T03:15:35.781Z,93.24
2023-05-13T03:19:03.941Z,93.66
2023-05-13T03:22:12.547Z,94.04
2023-05-13T03:25:40.728Z,94.61
2023-05-13T03:28:49.505Z,94.76
2023-05-13T03:32:17.519Z,94.59
2023-05-13T03:35:45.409Z,94.37
2023-05-13T03:39:13.173Z,95.17
2023-05-13T03:42:41.294Z,95.43
2023-05-13T03:46:09.768Z,94.35
2023-05-13T03:49:18.399Z,95.30
2023-05-13T03:52:47.117Z,95.79
2023-05-13T03:56:14.568Z,96.24
2023-05-13T03:59:23.847Z,95.81
2023-05-13T04:02:32.325Z,95.88
2023-05-13T04:05:01.177Z,95.45
2023-05-13T04:08:29.336Z,96.31
2023-05-13T04:11:57.271Z,97.24
2023-05-13T04:15:25.213Z,97.40
2023-05-13T04:18:53.165Z,96.95
2023-05-13T04:22:21.375Z,97.01
2023-05-13T04:25:11.052Z,97.94
2023-05-13T04:28:39.668Z,98.04
2023-05-13T04:32:07.561Z,99.52
2023-05-13T04:35:35.414Z,99.87
2023-05-13T04:39:03.302Z,100.00
2023-05-13T04:41:52.454Z,100.00
2023-05-13T04:45:20.718Z,99.81
2023-05-13T04:48:48.686Z,100.00
2023-05-13T04:52:16.559Z,100.00
2023-05-13T04:55:27.338Z,100.00
2023-05-13T04:58:33.438Z,100.00
2023-05-13T05:02:01.522Z,100.00
2023-05-13T05:05:10.936Z,100.00
2023-05-13T05:08:38.835Z,100.00
2023-05-13T05:12:06.796Z,100.00
2023-05-13T05:15:15.233Z,100.00
2023-05-13T05:18:43.330Z,100.00
2023-05-13T05:22:12.574Z,100.00
2023-05-13T05:25:20.998Z,100.00
2023-05-13T05:28:28.974Z,100.00
2023-05-13T05:31:57.330Z,100.00
2023-05-13T05:35:25.296Z,100.00
2023-05-13T05:38:53.236Z,100.00
2023-05-13T05:42:02.472Z,100.00
2023-05-13T05:45:30.679Z,100.00
2023-05-13T05:49:07.358Z,100.00
2023-05-13T05:52:35.307Z,100.00
2023-05-13T05:56:03.362Z,100.00
2023-05-13T05:59:12.104Z,100.00
2023-05-13T06:02:21.292Z,100.00
2023-05-13T06:05:49.769Z,100.00
2023-05-13T06:09:17.607Z,100.00
2023-05-13T06:12:06.043Z,100.00
2023-05-13T06:14:54.091Z,100.00
2023-05-13T06:18:21.903Z,100.00
2023-05-13T06:21:49.838Z,100.00
2023-05-13T06:24:38.518Z,100.00
2023-05-13T06:28:06.673Z,100.00
2023-05-13T06:31:14.607Z,100.00
2023-05-13T06:34:23.577Z,100.00
2023-05-13T06:37:51.636Z,100.00
2023-05-13T06:41:00.703Z,100.00
2023-05-13T06:44:08.748Z,100.00
2023-05-13T06:47:36.886Z,100.00
2023-05-13T06:51:04.734Z,100.00
2023-05-13T06:54:33.047Z,100.00
2023-05-13T06:58:01.129Z,100.00
2023-05-13T07:01:29.121Z,100.00
2023-05-13T07:04:57.057Z,100.00
2023-05-13T07:08:25.048Z,100.00
2023-05-13T07:11:53.010Z,100.00
2023-05-13T07:15:01.945Z,100.00
2023-05-13T07:18:10.298Z,100.00
2023-05-13T07:21:19.017Z,100.00
2023-05-13T07:24:29.053Z,100.00
2023-05-13T07:27:57.108Z,100.00
2023-05-13T07:31:21.194Z,100.00
2023-05-13T07:34:10.114Z,100.00
2023-05-13T07:36:55.883Z,100.00
2023-05-13T07:39:44.932Z,100.00
2023-05-13T07:43:14.037Z,100.00
2023-05-13T07:46:02.504Z,100.00
2023-05-13T07:49:12.526Z,100.00
2023-05-13T07:52:16.232Z,100.00
2023-05-13T07:55:28.033Z,100.00
2023-05-13T07:58:44.021Z,100.00
2023-05-13T08:02:11.894Z,100.00
2023-05-13T08:04:41.149Z,100.00
2023-05-13T08:08:05.523Z,100.00
2023-05-13T08:11:15.567Z,100.00
2023-05-13T08:14:43.577Z,100.00
2023-05-13T08:17:52.571Z,100.00
2023-05-13T08:21:20.535Z,100.00
2023-05-13T08:24:29.021Z,99.89
2023-05-13T08:27:37.215Z,98.63
2023-05-13T08:30:45.161Z,95.87
2023-05-13T08:33:53.119Z,92.88
2023-05-13T08:36:57.837Z,93.00
2023-05-13T08:40:25.683Z,88.83
2023-05-13T08:43:23.398Z,87.92
2023-05-13T08:46:51.372Z,85.15
2023-05-13T08:49:40.195Z,83.34
2023-05-13T08:53:08.385Z,81.06
2023-05-13T08:56:18.487Z,79.50
2023-05-13T08:59:26.406Z,79.87
2023-05-13T09:02:54.399Z,79.92
2023-05-13T09:06:02.558Z,79.23
2023-05-13T09:09:30.608Z,77.46
2023-05-13T09:12:58.655Z,77.82
2023-05-13T09:16:26.607Z,75.40
2023-05-13T09:18:55.273Z,74.41
2023-05-13T09:22:23.558Z,74.20
2023-05-13T09:25:32.517Z,72.49
2023-05-13T09:28:41.472Z,72.67
2023-05-13T09:31:57.309Z,70.45
2023-05-13T09:35:05.426Z,68.43
2023-05-13T09:38:13.837Z,68.18
2023-05-13T09:41:21.962Z,69.03
2023-05-13T09:44:45.892Z,69.23
2023-05-13T09:48:13.937Z,68.57
2023-05-13T09:51:03.579Z,67.09
2023-05-13T09:54:14.251Z,66.41
2023-05-13T09:57:30.022Z,64.93
2023-05-13T10:00:39.220Z,64.83
2023-05-13T10:04:05.831Z,65.37
2023-05-13T10:06:55.053Z,63.42
2023-05-13T10:10:03.037Z,62.04
2023-05-13T10:13:30.939Z,60.38
2023-05-13T10:16:41.111Z,60.09
2023-05-13T10:19:29.864Z,60.52
2023-05-13T10:22:57.924Z,60.97
2023-05-13T10:25:46.741Z,61.74
2023-05-13T10:28:35.051Z,61.45
2023-05-13T10:31:51.384Z,59.66
2023-05-13T10:34:35.652Z,60.61
2023-05-13T10:37:59.541Z,59.60
2023-05-13T10:41:27.481Z,59.35
2023-05-13T10:44:37.488Z,58.92
2023-05-13T10:48:05.735Z,57.36
2023-05-13T10:51:33.631Z,57.58
2023-05-13T10:54:22.646Z,57.54
2023-05-13T10:57:28.151Z,59.02
2023-05-13T11:00:36.633Z,56.80
2023-05-13T11:03:28.786Z,57.46
2023-05-13T11:06:39.747Z,57.36
2023-05-13T11:10:07.653Z,57.03
2023-05-13T11:13:16.127Z,56.53
2023-05-13T11:16:00.475Z,56.98
2023-05-13T11:19:08.891Z,55.59
2023-05-13T11:21:58.529Z,54.53
2023-05-13T11:25:06.838Z,54.15
2023-05-13T11:27:39.991Z,54.18
2023-05-13T11:30:44.078Z,53.24
2023-05-13T11:33:17.710Z,53.28
2023-05-13T11:36:09.964Z,52.86
2023-05-13T11:39:21.601Z,51.54
2023-05-13T11:41:50.975Z,52.36
2023-05-13T11:44:23.434Z,50.96
2023-05-13T11:47:32.537Z,51.74
2023-05-13T11:50:40.466Z,50.07
2023-05-13T11:53:56.798Z,50.28
2023-05-13T11:57:05.021Z,49.06
2023-05-13T12:00:28.207Z,48.66
2023-05-13T12:03:25.324Z,49.15
2023-05-13T12:06:36.926Z,47.12
2023-05-13T12:10:04.891Z,47.36
2023-05-13T12:13:14.724Z,47.15
2023-05-13T12:15:52.172Z,46.28
2023-05-13T12:18:48.220Z,44.42
2023-05-13T12:22:11.427Z,42.74
2023-05-13T12:24:48.413Z,42.55
2023-05-13T12:27:17.228Z,42.81
2023-05-13T12:29:45.790Z,43.11
2023-05-13T12:32:54.334Z,42.92
2023-05-13T12:35:42.402Z,43.18
2023-05-13T12:38:19.242Z,43.69
2023-05-13T12:41:31.352Z,42.74
2023-05-13T12:44:21.143Z,41.66
2023-05-13T12:46:53.019Z,40.92
2023-05-13T12:49:45.519Z,40.90
2023-05-13T12:52:17.796Z,39.20
2023-05-13T12:54:46.191Z,39.31
2023-05-13T12:57:43.040Z,39.05
2023-05-13T13:00:23.415Z,39.82
2023-05-13T13:03:16.016Z,37.29
2023-05-13T13:06:14.366Z,38.66
2023-05-13T13:09:02.502Z,38.60
2023-05-13T13:11:51.565Z,38.86
2023-05-13T13:14:27.713Z,37.77
2023-05-13T13:17:37.490Z,36.98
2023-05-13T13:20:26.218Z,38.03
2023-05-13T13:23:16.563Z,38.84
2023-05-13T13:26:14.374Z,38.36
2023-05-13T13:29:03.396Z,36.95
2023-05-13T13:31:32.490Z,37.22
2023-05-13T13:34:37.070Z,37.90
2023-05-13T13:37:26.509Z,38.97
2023-05-13T13:40:02.774Z,39.77
2023-05-13T13:43:11.678Z,40.64
2023-05-13T13:46:00.201Z,39.60
2023-05-13T13:48:29.706Z,39.05
2023-05-13T13:51:07.770Z,39.04
2023-05-13T13:53:58.181Z,38.24
2023-05-13T13:56:27.300Z,39.07
2023-05-13T13:58:56.515Z,39.46
2023-05-13T14:01:48.385Z,37.96
2023-05-13T14:04:53.514Z,35.77
2023-05-13T14:07:22.022Z,35.51
2023-05-13T14:10:00.882Z,35.27
2023-05-13T14:12:37.353Z,35.16
2023-05-13T14:15:14.232Z,35.09
2023-05-13T14:17:58.122Z,34.50
2023-05-13T14:20:47.156Z,35.07
2023-05-13T14:23:51.035Z,33.70
2023-05-13T14:26:22.740Z,33.43
2023-05-13T14:28:54.459Z,32.38
2023-05-13T14:31:45.070Z,32.44
2023-05-13T14:34:13.797Z,31.72
2023-05-13T14:36:47.967Z,31.24
2023-05-13T14:39:20.425Z,31.97
2023-05-13T14:42:06.233Z,31.98
2023-05-13T14:44:36.603Z,31.90
2023-05-13T14:47:06.649Z,32.24
2023-05-13T14:49:55.108Z,32.31
2023-05-13T14:52:26.120Z,32.90
2023-05-13T14:54:55.026Z,33.50
2023-05-13T14:57:44.057Z,34.04
2023-05-13T15:00:49.223Z,34.03
2023-05-13T15:03:46.409Z,34.14
2023-05-13T15:06:15.292Z,33.60
2023-05-13T15:09:11.824Z,32.81
2023-05-13T15:11:43.756Z,31.88
2023-05-13T15:14:18.246Z,31.95
2023-05-13T15:16:52.567Z,32.02
2023-05-13T15:19:41.807Z,32.18
2023-05-13T15:22:10.302Z,32.48
2023-05-13T15:25:00.896Z,32.24
2023-05-13T15:28:05.458Z,32.44
2023-05-13T15:30:36.232Z,32.27
2023-05-13T15:33:06.361Z,32.37
2023-05-13T15:35:45.691Z,32.57
2023-05-13T15:38:34.228Z,33.28
2023-05-13T15:41:09.925Z,34.02
2023-05-13T15:43:37.976Z,34.43
2023-05-13T15:46:49.634Z,35.37
2023-05-13T15:49:37.618Z,35.89
2023-05-13T15:52:08.881Z,36.35
2023-05-13T15:54:39.230Z,36.21
2023-05-13T15:57:29.996Z,37.72
2023-05-13T16:00:18.748Z,37.84
2023-05-13T16:03:26.948Z,38.28
2023-05-13T16:05:58.598Z,38.97
2023-05-13T16:08:35.426Z,40.06
2023-05-13T16:11:27.881Z,41.15
2023-05-13T16:14:33.228Z,42.16
2023-05-13T16:17:21.470Z,42.88
2023-05-13T16:20:30.965Z,44.28
2023-05-13T16:23:58.894Z,44.66
2023-05-13T16:27:04.139Z,45.96
2023-05-13T16:30:00.306Z,47.13
2023-05-13T16:33:12.576Z,47.17
2023-05-13T16:36:16.430Z,48.11
2023-05-13T16:39:13.526Z,47.91
2023-05-13T16:42:29.077Z,49.64
2023-05-13T16:45:56.980Z,49.97
2023-05-13T16:49:07.176Z,51.37
2023-05-13T16:51:57.548Z,52.40
2023-05-13T16:55:25.541Z,52.06
2023-05-13T16:58:37.415Z,53.74
2023-05-13T17:01:26.284Z,53.47
2023-05-13T17:04:15.574Z,53.88
2023-05-13T17:07:43.749Z,55.39
2023-05-13T17:11:12.159Z,56.77
2023-05-13T17:14:23.782Z,56.18
2023-05-13T17:17:51.997Z,56.72
2023-05-13T17:21:02.315Z,56.25
2023-05-13T17:24:30.293Z,58.16
2023-05-13T17:27:24.339Z,59.48
2023-05-13T17:30:39.801Z,59.96
2023-05-13T17:33:45.447Z,59.01
2023-05-13T17:37:13.592Z,60.38
2023-05-13T17:40:21.934Z,60.95
2023-05-13T17:43:30.162Z,59.78
2023-05-13T17:46:18.276Z,61.77
2023-05-13T17:48:54.561Z,62.50
2023-05-13T17:52:10.281Z,62.32
2023-05-13T17:55:38.230Z,61.69
2023-05-13T17:58:47.969Z,63.75
2023-05-13T18:02:16.146Z,64.97
2023-05-13T18:05:25.520Z,64.66
2023-05-13T18:08:55.858Z,65.62
2023-05-13T18:11:45.158Z,65.11
2023-05-13T18:15:13.166Z,67.35
2023-05-13T18:18:01.454Z,65.68
2023-05-13T18:20:46.518Z,65.62
2023-05-13T18:24:14.491Z,65.89
2023-05-13T18:27:42.456Z,66.28
2023-05-13T18:30:50.956Z,65.49
2023-05-13T18:33:43.972Z,68.46
2023-05-13T18:36:56.897Z,68.72
2023-05-13T18:40:25.896Z,67.77
2023-05-13T18:43:34.321Z,68.01
2023-05-13T18:46:50.256Z,67.52
2023-05-13T18:49:58.373Z,68.88
2023-05-13T18:53:07.436Z,68.36
2023-05-13T18:56:15.229Z,68.81
2023-05-13T18:59:43.626Z,69.64
2023-05-13T19:03:11.665Z,69.36
2023-05-13T19:06:40.141Z,68.16
2023-05-13T19:09:48.504Z,68.81
2023-05-13T19:13:16.678Z,68.28
2023-05-13T19:16:26.025Z,69.14
2023-05-13T19:19:34.136Z,68.99
2023-05-13T19:23:02.726Z,69.32
2023-05-13T19:26:30.674Z,69.31
2023-05-13T19:29:27.473Z,68.58
2023-05-13T19:32:55.957Z,69.52
2023-05-13T19:36:23.971Z,68.84
2023-05-13T19:39:52.162Z,69.53
2023-05-13T19:43:20.597Z,69.04
2023-05-13T19:46:48.569Z,69.05
2023-05-13T19:50:16.510Z,69.90
2023-05-13T19:53:44.603Z,69.80
2023-05-13T19:57:12.664Z,69.59
2023-05-13T20:00:40.563Z,69.14
2023-05-13T20:04:09.148Z,69.20
2023-05-13T20:07:36.838Z,69.65
2023-05-13T20:10:45.272Z,69.50
2023-05-13T20:14:13.446Z,69.76
2023-05-13T20:17:41.581Z,70.25
2023-05-13T20:20:30.192Z,70.06
2023-05-13T20:23:38.752Z,71.05
2023-05-13T20:26:28.869Z,71.05
2023-05-13T20:29:57.866Z,70.39
2023-05-13T20:32:47.396Z,71.98
2023-05-13T20:36:15.737Z,70.74
2023-05-13T20:39:43.689Z,70.21
2023-05-13T20:42:55.269Z,71.28
2023-05-13T20:46:04.092Z,70.99
2023-05-13T20:49:32.073Z,70.71
2023-05-13T20:53:00.141Z,71.25
2023-05-13T20:55:49.061Z,70.72
2023-05-13T20:59:17.076Z,71.07
2023-05-13T21:02:45.125Z,72.30
2023-05-13T21:05:34.982Z,72.51
2023-05-13T21:08:43.488Z,72.84
2023-05-13T21:12:11.580Z,71.95
2023-05-13T21:15:19.932Z,73.45
2023-05-13T21:18:35.668Z,73.95
2023-05-13T21:22:03.656Z,74.13
2023-05-13T21:24:33.770Z,74.88
2023-05-13T21:28:01.778Z,75.26
2023-05-13T21:31:10.258Z,77.01
2023-05-13T21:34:38.208Z,78.98
2023-05-13T21:38:12.461Z,80.90
2023-05-13T21:41:18.022Z,79.70
2023-05-13T21:44:46.457Z,81.65
2023-05-13T21:48:14.675Z,83.53
2023-05-13T21:51:42.738Z,82.62
2023-05-13T21:55:11.073Z,83.39
2023-05-13T21:58:21.919Z,83.16
2023-05-13T22:01:47.696Z,82.52
2023-05-13T22:05:16.172Z,82.37
2023-05-13T22:08:44.492Z,82.11
2023-05-13T22:12:12.501Z,81.75
2023-05-13T22:15:40.542Z,82.23
2023-05-13T22:19:08.888Z,81.71
2023-05-13T22:22:37.015Z,81.81
2023-05-13T22:25:53.023Z,82.69
2023-05-13T22:29:20.862Z,82.83
2023-05-13T22:32:49.075Z,81.48
2023-05-13T22:36:17.265Z,81.65
2023-05-13T22:39:26.417Z,81.11
2023-05-13T22:42:54.548Z,79.71
2023-05-13T22:46:22.627Z,79.50
2023-05-13T22:49:50.439Z,78.80
2023-05-13T22:53:18.608Z,78.41
2023-05-13T22:56:27.606Z,78.55
2023-05-13T22:59:55.640Z,78.30
2023-05-13T23:03:23.802Z,78.33
2023-05-13T23:06:32.147Z,77.97
2023-05-13T23:10:00.305Z,77.38
2023-05-13T23:13:28.637Z,76.75
2023-05-13T23:16:56.768Z,76.68
2023-05-13T23:20:05.279Z,76.08
2023-05-13T23:23:33.395Z,75.95
2023-05-13T23:27:01.270Z,75.39
2023-05-13T23:30:29.635Z,75.25
2023-05-13T23:33:57.632Z,75.18
2023-05-13T23:37:25.619Z,75.07
2023-05-13T23:40:53.622Z,75.34
2023-05-13T23:44:22.088Z,75.23
2023-05-13T23:47:50.549Z,75.84
2023-05-13T23:51:18.480Z,75.64
2023-05-13T23:54:46.547Z,75.81
2023-05-13T23:58:14.454Z,75.52
